createdAt,value
2018-12-19T00:00:09.131Z,100644.30
2018-12-19T00:02:37.174Z,100643.41
2018-12-19T00:05:04.873Z,100650.98
2018-12-19T00:07:32.388Z,100642.52
2018-12-19T00:09:59.867Z,100633.59
2018-12-19T00:12:27.465Z,100633.47
2018-12-19T00:14:54.959Z,100627.63
2018-12-19T00:17:22.431Z,100627.95
2018-12-19T00:19:50.015Z,100614.87
2018-12-19T00:22:17.504Z,100610.67
2018-12-19T00:24:44.994Z,100597.34
2018-12-19T00:27:13.294Z,100590.20
2018-12-19T00:29:40.860Z,100579.34
2018-12-19T00:32:08.389Z,100574.69
2018-12-19T00:34:35.911Z,100557.23
2018-12-19T00:37:03.488Z,100564.01
2018-12-19T00:39:30.950Z,100558.00
2018-12-19T00:41:58.465Z,100565.23
2018-12-19T00:44:25.973Z,100557.79
2018-12-19T00:46:53.504Z,100561.28
2018-12-19T00:49:22.809Z,100560.48
2018-12-19T00:51:50.314Z,100546.22
2018-12-19T00:54:17.822Z,100557.16
2018-12-19T00:56:45.359Z,100554.55
2018-12-19T00:59:12.851Z,100562.08
2018-12-19T01:01:40.325Z,100552.78
2018-12-19T01:04:08.126Z,100552.70
2018-12-19T01:06:35.710Z,100555.22
2018-12-19T01:09:04.787Z,100550.17
2018-12-19T01:11:32.301Z,100556.48
2018-12-19T01:13:59.896Z,100542.02
2018-12-19T01:16:27.430Z,100540.70
2018-12-19T01:18:55.004Z,100535.58
2018-12-19T01:21:22.498Z,100540.62
2018-12-19T01:23:50.021Z,100528.77
2018-12-19T01:26:17.612Z,100532.00
2018-12-19T01:28:45.788Z,100531.28
2018-12-19T01:31:13.312Z,100518.25
2018-12-19T01:33:41.687Z,100530.03
2018-12-19T01:36:09.154Z,100524.52
2018-12-19T01:38:36.685Z,100520.27
2018-12-19T01:41:04.244Z,100519.14
2018-12-19T01:43:31.724Z,100496.47
2018-12-19T01:45:59.268Z,100501.06
2018-12-19T01:48:26.936Z,100501.48
2018-12-19T01:50:54.401Z,100495.08
2018-12-19T01:53:21.904Z,100505.18
2018-12-19T01:55:49.760Z,100496.27
2018-12-19T01:58:17.356Z,100511.44
2018-12-19T02:00:45.578Z,100492.48
2018-12-19T02:03:13.126Z,100495.84
2018-12-19T02:05:40.618Z,100483.64
2018-12-19T02:08:08.152Z,100484.91
2018-12-19T02:10:35.708Z,100479.83
2018-12-19T02:13:03.584Z,100472.30
2018-12-19T02:15:31.065Z,100465.61
2018-12-19T02:17:58.620Z,100457.55
2018-12-19T02:20:26.156Z,100453.77
2018-12-19T02:22:54.506Z,100447.08
2018-12-19T02:25:21.992Z,100449.22
2018-12-19T02:27:50.062Z,100437.57
2018-12-19T02:30:17.562Z,100453.09
2018-12-19T02:32:45.828Z,100442.98
2018-12-19T02:35:13.434Z,100441.19
2018-12-19T02:37:41.013Z,100431.18
2018-12-19T02:40:08.578Z,100429.61
2018-12-19T02:42:36.114Z,100422.89
2018-12-19T02:45:05.554Z,100422.12
2018-12-19T02:47:33.780Z,100430.12
2018-12-19T02:50:01.424Z,100414.17
2018-12-19T02:52:28.934Z,100413.41
2018-12-19T02:54:56.487Z,100423.00
2018-12-19T02:57:23.976Z,100403.20
2018-12-19T02:59:51.502Z,100414.17
2018-12-19T03:02:18.955Z,100407.09
2018-12-19T03:04:46.472Z,100410.01
2018-12-19T03:07:13.972Z,100414.28
2018-12-19T03:09:43.069Z,100404.16
2018-12-19T03:12:10.786Z,100409.97
2018-12-19T03:14:38.296Z,100415.94
2018-12-19T03:17:05.861Z,100410.81
2018-12-19T03:19:33.518Z,100423.80
2018-12-19T03:22:01.055Z,100414.48
2018-12-19T03:24:28.659Z,100403.93
2018-12-19T03:26:56.143Z,100406.98
2018-12-19T03:29:23.601Z,100411.23
2018-12-19T03:31:51.115Z,100405.38
2018-12-19T03:34:18.646Z,100397.78
2018-12-19T03:36:46.232Z,100392.77
2018-12-19T03:39:13.771Z,100391.58
2018-12-19T03:41:41.311Z,100380.30
2018-12-19T03:44:09.047Z,100376.92
2018-12-19T03:46:36.571Z,100382.81
2018-12-19T03:49:04.117Z,100377.00
2018-12-19T03:51:31.721Z,100373.59
2018-12-19T03:53:59.248Z,100361.89
2018-12-19T03:56:26.739Z,100356.88
2018-12-19T03:58:54.265Z,100358.59
2018-12-19T04:01:21.758Z,100365.72
2018-12-19T04:03:50.062Z,100362.42
2018-12-19T04:06:17.652Z,100345.63
2018-12-19T04:08:45.163Z,100346.11
2018-12-19T04:11:12.766Z,100340.32
2018-12-19T04:13:40.266Z,100342.52
2018-12-19T04:16:07.813Z,100345.47
2018-12-19T04:18:35.468Z,100330.25
2018-12-19T04:21:02.957Z,100340.73
2018-12-19T04:23:30.462Z,100333.55
2018-12-19T04:25:58.520Z,100317.86
2018-12-19T04:28:26.063Z,100319.93
2018-12-19T04:30:53.584Z,100313.55
2018-12-19T04:33:21.077Z,100316.11
2018-12-19T04:35:49.034Z,100312.36
2018-12-19T04:38:17.088Z,100316.62
2018-12-19T04:40:44.648Z,100311.64
2018-12-19T04:43:12.200Z,100309.63
2018-12-19T04:45:39.680Z,100315.59
2018-12-19T04:48:07.246Z,100325.27
2018-12-19T04:50:34.772Z,100318.17
2018-12-19T04:53:02.469Z,100311.80
2018-12-19T04:55:30.025Z,100309.27
2018-12-19T04:57:57.659Z,100312.70
2018-12-19T05:00:25.204Z,100329.53
2018-12-19T05:02:52.700Z,100345.50
2018-12-19T05:05:20.268Z,100343.52
2018-12-19T05:07:48.104Z,100334.20
2018-12-19T05:10:15.684Z,100335.40
2018-12-19T05:12:43.207Z,100337.92
2018-12-19T05:15:10.749Z,100325.30
2018-12-19T05:17:38.349Z,100326.95
2018-12-19T05:20:10.117Z,100330.70
2018-12-19T05:22:37.781Z,100321.84
2018-12-19T05:25:09.991Z,100333.66
2018-12-19T05:27:37.519Z,100330.22
2018-12-19T05:30:07.953Z,100328.96
2018-12-19T05:32:35.627Z,100323.39
2018-12-19T05:35:03.842Z,100323.72
2018-12-19T05:37:31.644Z,100319.51
2018-12-19T05:39:59.168Z,100319.93
2018-12-19T05:42:26.656Z,100311.48
2018-12-19T05:44:54.210Z,100316.92
2018-12-19T05:47:22.327Z,100311.91
2018-12-19T05:49:50.249Z,100299.73
2018-12-19T05:52:19.036Z,100309.90
2018-12-19T05:54:47.329Z,100311.94
2018-12-19T05:57:15.091Z,100316.59
2018-12-19T05:59:42.584Z,100317.86
2018-12-19T06:02:10.204Z,100332.62
2018-12-19T06:04:37.738Z,100345.79
2018-12-19T06:07:06.407Z,100350.35
2018-12-19T06:09:33.909Z,100365.92
2018-12-19T06:12:01.460Z,100352.91
2018-12-19T06:14:29.395Z,100356.59
2018-12-19T06:16:57.298Z,100355.72
2018-12-19T06:19:24.775Z,100362.91
2018-12-19T06:21:52.264Z,100364.16
2018-12-19T06:24:19.786Z,100362.06
2018-12-19T06:26:47.250Z,100371.36
2018-12-19T06:29:14.749Z,100365.43
2018-12-19T06:31:42.365Z,100363.78
2018-12-19T06:34:10.212Z,100371.36
2018-12-19T06:36:37.667Z,100363.78
2018-12-19T06:39:06.917Z,100367.18
2018-12-19T06:41:35.346Z,100367.64
2018-12-19T06:44:02.799Z,100368.09
2018-12-19T06:46:30.271Z,100358.90
2018-12-19T06:48:57.714Z,100356.86
2018-12-19T06:51:25.223Z,100352.97
2018-12-19T06:53:52.693Z,100349.67
2018-12-19T06:56:20.149Z,100343.36
2018-12-19T06:58:47.620Z,100331.61
2018-12-19T07:01:15.080Z,100335.04
2018-12-19T07:03:42.531Z,100334.74
2018-12-19T07:06:10.035Z,100321.30
2018-12-19T07:08:37.481Z,100322.66
2018-12-19T07:11:04.965Z,100336.16
2018-12-19T07:13:32.426Z,100339.58
2018-12-19T07:15:59.897Z,100345.09
2018-12-19T07:18:27.880Z,100349.30
2018-12-19T07:20:55.385Z,100337.45
2018-12-19T07:23:23.363Z,100355.13
2018-12-19T07:25:50.832Z,100343.73
2018-12-19T07:28:19.200Z,100341.17
2018-12-19T07:30:46.668Z,100330.56
2018-12-19T07:33:14.119Z,100337.27
2018-12-19T07:35:41.635Z,100335.61
2018-12-19T07:38:09.072Z,100343.58
2018-12-19T07:40:36.520Z,100349.47
2018-12-19T07:43:03.988Z,100348.98
2018-12-19T07:45:31.433Z,100348.17
2018-12-19T07:47:59.290Z,100352.39
2018-12-19T07:50:26.768Z,100353.27
2018-12-19T07:52:54.253Z,100361.64
2018-12-19T07:55:21.731Z,100365.05
2018-12-19T07:57:49.211Z,100370.52
2018-12-19T08:00:16.692Z,100365.47
2018-12-19T08:02:44.315Z,100364.14
2018-12-19T08:05:11.769Z,100364.17
2018-12-19T08:07:39.233Z,100368.31
2018-12-19T08:10:07.201Z,100372.56
2018-12-19T08:12:36.211Z,100368.80
2018-12-19T08:15:04.800Z,100376.37
2018-12-19T08:17:32.269Z,100383.14
2018-12-19T08:20:00.209Z,100383.63
2018-12-19T08:22:27.657Z,100381.95
2018-12-19T08:24:55.119Z,100379.00
2018-12-19T08:27:22.610Z,100375.59
2018-12-19T08:29:50.080Z,100374.77
2018-12-19T08:32:17.581Z,100369.28
2018-12-19T08:34:45.115Z,100367.22
2018-12-19T08:37:12.584Z,100370.13
2018-12-19T08:39:40.042Z,100361.80
2018-12-19T08:42:07.920Z,100360.98
2018-12-19T08:44:35.367Z,100355.06
2018-12-19T08:47:02.817Z,100361.44
2018-12-19T08:49:30.280Z,100357.72
2018-12-19T08:51:57.751Z,100354.41
2018-12-19T08:54:25.192Z,100350.55
2018-12-19T08:56:52.637Z,100355.25
2018-12-19T08:59:20.110Z,100349.41
2018-12-19T09:01:47.568Z,100361.23
2018-12-19T09:04:15.012Z,100362.91
2018-12-19T09:06:42.464Z,100359.58
2018-12-19T09:09:09.990Z,100366.77
2018-12-19T09:11:37.527Z,100370.58
2018-12-19T09:14:05.019Z,100367.23
2018-12-19T09:16:32.461Z,100368.50
2018-12-19T09:18:59.937Z,100374.91
2018-12-19T09:21:27.658Z,100372.37
2018-12-19T09:23:55.134Z,100358.48
2018-12-19T09:26:22.612Z,100355.50
2018-12-19T09:28:50.146Z,100351.68
2018-12-19T09:31:17.708Z,100348.77
2018-12-19T09:33:45.173Z,100348.79
2018-12-19T09:36:12.623Z,100350.48
2018-12-19T09:38:40.998Z,100356.37
2018-12-19T09:41:12.259Z,100353.91
2018-12-19T09:43:38.284Z,100361.51
2018-12-19T09:46:05.768Z,100361.53
2018-12-19T09:48:33.355Z,100366.67
2018-12-19T09:51:00.831Z,100368.36
2018-12-19T09:53:28.551Z,100369.25
2018-12-19T09:55:56.013Z,100369.25
2018-12-19T09:58:23.461Z,100366.67
2018-12-19T10:00:51.899Z,100362.06
2018-12-19T10:03:19.378Z,100359.53
2018-12-19T10:05:46.915Z,100357.82
2018-12-19T10:08:14.379Z,100360.72
2018-12-19T10:10:42.339Z,100361.14
2018-12-19T10:13:09.906Z,100350.63
2018-12-19T10:15:37.428Z,100348.53
2018-12-19T10:18:04.946Z,100351.48
2018-12-19T10:20:32.412Z,100345.58
2018-12-19T10:23:00.208Z,100344.77
2018-12-19T10:25:27.681Z,100343.91
2018-12-19T10:27:55.126Z,100349.42
2018-12-19T10:30:22.595Z,100346.11
2018-12-19T10:32:52.014Z,100346.97
2018-12-19T10:35:19.484Z,100342.76
2018-12-19T10:37:46.966Z,100344.47
2018-12-19T10:40:15.001Z,100341.94
2018-12-19T10:42:42.453Z,100342.39
2018-12-19T10:45:09.975Z,100340.67
2018-12-19T10:47:37.754Z,100331.02
2018-12-19T10:50:07.522Z,100335.69
2018-12-19T10:52:34.969Z,100339.53
2018-12-19T10:55:02.503Z,100334.94
2018-12-19T10:57:30.517Z,100337.56
2018-12-19T10:59:57.980Z,100328.34
2018-12-19T11:02:25.461Z,100325.42
2018-12-19T11:04:54.299Z,100328.81
2018-12-19T11:07:22.127Z,100325.89
2018-12-19T11:09:49.565Z,100332.26
2018-12-19T11:12:17.024Z,100327.63
2018-12-19T11:14:44.487Z,100328.87
2018-12-19T11:17:12.104Z,100327.23
2018-12-19T11:19:39.549Z,100328.94
2018-12-19T11:22:08.976Z,100325.20
2018-12-19T11:24:37.058Z,100326.08
2018-12-19T11:27:04.631Z,100322.69
2018-12-19T11:29:32.094Z,100323.55
2018-12-19T11:31:59.626Z,100330.73
2018-12-19T11:34:27.182Z,100332.80
2018-12-19T11:36:54.642Z,100327.36
2018-12-19T11:39:22.174Z,100323.52
2018-12-19T11:41:49.652Z,100317.61
2018-12-19T11:44:17.118Z,100316.77
2018-12-19T11:46:44.588Z,100322.30
2018-12-19T11:49:12.052Z,100321.89
2018-12-19T11:51:39.507Z,100314.34
2018-12-19T11:54:06.979Z,100316.03
2018-12-19T11:56:34.476Z,100314.75
2018-12-19T11:59:01.940Z,100317.34
2018-12-19T12:01:29.407Z,100312.73
2018-12-19T12:03:56.907Z,100316.55
2018-12-19T12:06:24.356Z,100318.28
2018-12-19T12:08:51.842Z,100318.77
2018-12-19T12:11:19.311Z,100325.11
2018-12-19T12:13:46.828Z,100324.73
2018-12-19T12:16:14.303Z,100322.23
2018-12-19T12:18:41.775Z,100318.52
2018-12-19T12:21:09.233Z,100318.15
2018-12-19T12:23:36.692Z,100315.21
2018-12-19T12:26:04.279Z,100317.80
2018-12-19T12:28:31.817Z,100300.95
2018-12-19T12:30:59.280Z,100296.68
2018-12-19T12:33:26.744Z,100295.45
2018-12-19T12:35:54.284Z,100297.23
2018-12-19T12:38:22.436Z,100293.44
2018-12-19T12:40:49.963Z,100301.48
2018-12-19T12:43:17.434Z,100293.92
2018-12-19T12:45:44.902Z,100292.28
2018-12-19T12:48:12.412Z,100286.78
2018-12-19T12:50:39.900Z,100288.06
2018-12-19T12:53:07.513Z,100285.56
2018-12-19T12:55:34.973Z,100291.87
2018-12-19T12:58:02.428Z,100299.52
2018-12-19T13:00:29.971Z,100293.17
2018-12-19T13:02:57.449Z,100287.25
2018-12-19T13:05:24.936Z,100289.39
2018-12-19T13:07:52.422Z,100285.61
2018-12-19T13:10:19.917Z,100278.83
2018-12-19T13:12:47.387Z,100280.54
2018-12-19T13:15:16.994Z,100262.36
2018-12-19T13:17:44.565Z,100266.13
2018-12-19T13:20:12.029Z,100266.99
2018-12-19T13:22:39.498Z,100271.65
2018-12-19T13:25:07.043Z,100279.73
2018-12-19T13:27:34.595Z,100278.86
2018-12-19T13:30:02.171Z,100281.38
2018-12-19T13:32:29.637Z,100275.88
2018-12-19T13:34:57.080Z,100267.36
2018-12-19T13:37:24.760Z,100271.61
2018-12-19T13:39:52.221Z,100283.02
2018-12-19T13:42:19.703Z,100281.76
2018-12-19T13:44:47.168Z,100281.33
2018-12-19T13:47:14.632Z,100281.75
2018-12-19T13:49:42.099Z,100277.07
2018-12-19T13:52:10.454Z,100278.36
2018-12-19T13:54:37.973Z,100283.88
2018-12-19T13:57:05.604Z,100288.95
2018-12-19T13:59:33.142Z,100283.44
2018-12-19T14:02:00.644Z,100279.20
2018-12-19T14:04:28.388Z,100280.89
2018-12-19T14:06:55.906Z,100286.80
2018-12-19T14:09:23.430Z,100294.03
2018-12-19T14:11:50.912Z,100292.77
2018-12-19T14:14:18.463Z,100299.13
2018-12-19T14:16:46.037Z,100303.78
2018-12-19T14:19:13.690Z,100306.34
2018-12-19T14:21:41.240Z,100305.91
2018-12-19T14:24:08.823Z,100302.52
2018-12-19T14:26:36.371Z,100300.42
2018-12-19T14:29:03.894Z,100308.45
2018-12-19T14:31:31.555Z,100304.23
2018-12-19T14:33:59.100Z,100303.37
2018-12-19T14:36:26.618Z,100304.23
2018-12-19T14:38:54.243Z,100300.83
2018-12-19T14:41:21.760Z,100297.02
2018-12-19T14:43:49.323Z,100293.22
2018-12-19T14:46:16.830Z,100292.38
2018-12-19T14:48:44.292Z,100294.48
2018-12-19T14:51:13.080Z,100297.02
2018-12-19T14:53:40.575Z,100298.28
2018-12-19T14:56:08.076Z,100295.33
2018-12-19T14:58:35.636Z,100291.95
2018-12-19T15:01:03.509Z,100284.75
2018-12-19T15:03:31.069Z,100283.92
2018-12-19T15:05:58.610Z,100290.25
2018-12-19T15:08:26.114Z,100287.71
2018-12-19T15:10:56.572Z,100298.28
2018-12-19T15:13:24.085Z,100294.89
2018-12-19T15:15:57.128Z,100305.89
2018-12-19T15:18:25.660Z,100304.66
2018-12-19T15:20:53.614Z,100300.41
2018-12-19T15:23:21.240Z,100302.51
2018-12-19T15:25:48.793Z,100300.83
2018-12-19T15:28:16.406Z,100299.56
2018-12-19T15:30:44.078Z,100297.45
2018-12-19T15:33:11.944Z,100301.25
2018-12-19T15:35:39.918Z,100292.39
2018-12-19T15:38:08.361Z,100295.35
2018-12-19T15:40:35.945Z,100288.15
2018-12-19T15:43:03.701Z,100294.52
2018-12-19T15:45:31.267Z,100297.48
2018-12-19T15:47:58.837Z,100296.20
2018-12-19T15:50:26.787Z,100295.79
2018-12-19T15:52:54.470Z,100285.61
2018-12-19T15:55:22.102Z,100290.27
2018-12-19T15:57:49.685Z,100286.47
2018-12-19T16:00:17.240Z,100285.20
2018-12-19T16:02:44.804Z,100286.05
2018-12-19T16:05:12.380Z,100285.64
2018-12-19T16:07:40.018Z,100288.16
2018-12-19T16:10:08.815Z,100284.77
2018-12-19T16:12:39.292Z,100289.02
2018-12-19T16:15:07.129Z,100285.61
2018-12-19T16:17:34.764Z,100292.81
2018-12-19T16:20:02.434Z,100301.28
2018-12-19T16:22:31.203Z,100296.64
2018-12-19T16:24:58.987Z,100297.91
2018-12-19T16:27:26.585Z,100303.38
2018-12-19T16:29:54.213Z,100301.71
2018-12-19T16:32:21.802Z,100303.81
2018-12-19T16:34:49.525Z,100298.74
2018-12-19T16:37:17.197Z,100297.87
2018-12-19T16:39:45.452Z,100299.16
2018-12-19T16:42:13.236Z,100287.29
2018-12-19T16:44:40.777Z,100280.94
2018-12-19T16:47:08.334Z,100277.56
2018-12-19T16:49:35.888Z,100281.37
2018-12-19T16:52:03.564Z,100288.15
2018-12-19T16:54:31.206Z,100284.74
2018-12-19T16:56:58.776Z,100288.14
2018-12-19T16:59:26.272Z,100300.84
2018-12-19T17:01:53.988Z,100298.33
2018-12-19T17:04:21.657Z,100299.16
2018-12-19T17:06:49.251Z,100294.06
2018-12-19T17:09:17.474Z,100291.13
2018-12-19T17:11:45.057Z,100300.02
2018-12-19T17:14:13.831Z,100301.72
2018-12-19T17:16:41.496Z,100299.16
2018-12-19T17:19:11.820Z,100302.13
2018-12-19T17:21:39.593Z,100295.38
2018-12-19T17:24:07.237Z,100298.33
2018-12-19T17:26:34.817Z,100291.14
2018-12-19T17:29:02.403Z,100298.75
2018-12-19T17:31:30.424Z,100299.18
2018-12-19T17:33:58.002Z,100303.41
2018-12-19T17:36:25.648Z,100308.93
2018-12-19T17:38:53.205Z,100304.27
2018-12-19T17:41:20.745Z,100308.91
2018-12-19T17:43:48.440Z,100314.00
2018-12-19T17:46:16.196Z,100312.72
2018-12-19T17:48:44.110Z,100314.44
2018-12-19T17:51:11.810Z,100316.11
2018-12-19T17:53:39.499Z,100308.05
2018-12-19T17:56:07.153Z,100307.63
2018-12-19T17:58:35.567Z,100313.54
2018-12-19T18:01:03.301Z,100310.16
2018-12-19T18:03:31.560Z,100311.00
2018-12-19T18:05:59.316Z,100308.89
2018-12-19T18:08:27.096Z,100311.00
2018-12-19T18:10:54.740Z,100301.28
2018-12-19T18:13:22.338Z,100298.73
2018-12-19T18:15:49.965Z,100293.23
2018-12-19T18:18:17.729Z,100282.23
2018-12-19T18:20:45.356Z,100279.67
2018-12-19T18:23:12.945Z,100269.12
2018-12-19T18:25:41.646Z,100261.91
2018-12-19T18:28:09.288Z,100253.46
2018-12-19T18:30:36.952Z,100264.05
2018-12-19T18:33:04.512Z,100267.00
2018-12-19T18:35:32.171Z,100264.02
2018-12-19T18:37:59.855Z,100273.32
2018-12-19T18:40:28.954Z,100280.96
2018-12-19T18:42:56.599Z,100283.05
2018-12-19T18:45:24.255Z,100286.85
2018-12-19T18:47:52.747Z,100288.94
2018-12-19T18:50:20.603Z,100296.56
2018-12-19T18:52:48.533Z,100286.41
2018-12-19T18:55:16.341Z,100288.95
2018-12-19T18:57:45.199Z,100296.12
2018-12-19T19:00:14.921Z,100296.14
2018-12-19T19:02:42.731Z,100297.38
2018-12-19T19:05:10.395Z,100283.86
2018-12-19T19:07:38.694Z,100279.64
2018-12-19T19:10:07.710Z,100278.77
2018-12-19T19:12:35.258Z,100284.70
2018-12-19T19:15:02.833Z,100285.10
2018-12-19T19:17:30.434Z,100290.59
2018-12-19T19:19:57.963Z,100288.06
2018-12-19T19:22:25.512Z,100283.84
2018-12-19T19:24:53.023Z,100282.97
2018-12-19T19:27:20.553Z,100279.57
2018-12-19T19:29:48.951Z,100277.89
2018-12-19T19:32:16.560Z,100278.72
2018-12-19T19:34:44.147Z,100272.37
2018-12-19T19:37:11.813Z,100270.27
2018-12-19T19:39:39.368Z,100270.23
2018-12-19T19:42:07.376Z,100271.51
2018-12-19T19:44:34.982Z,100269.80
2018-12-19T19:47:02.474Z,100270.18
2018-12-19T19:49:30.719Z,100273.98
2018-12-19T19:51:58.260Z,100281.14
2018-12-19T19:54:25.831Z,100287.05
2018-12-19T19:56:53.885Z,100291.70
2018-12-19T19:59:21.486Z,100288.73
2018-12-19T20:01:49.025Z,100288.34
2018-12-19T20:04:16.606Z,100287.09
2018-12-19T20:06:44.179Z,100292.17
2018-12-19T20:09:11.825Z,100286.67
2018-12-19T20:11:39.461Z,100283.27
2018-12-19T20:14:06.987Z,100280.31
2018-12-19T20:16:36.477Z,100276.91
2018-12-19T20:19:04.098Z,100278.99
2018-12-19T20:21:31.766Z,100276.44
2018-12-19T20:23:59.853Z,100272.21
2018-12-19T20:26:27.405Z,100267.13
2018-12-19T20:28:55.777Z,100269.64
2018-12-19T20:31:23.486Z,100269.22
2018-12-19T20:33:53.494Z,100267.11
2018-12-19T20:36:21.658Z,100267.09
2018-12-19T20:38:49.198Z,100269.22
2018-12-19T20:41:16.758Z,100271.80
2018-12-19T20:43:44.300Z,100271.78
2018-12-19T20:46:11.784Z,100279.41
2018-12-19T20:48:39.373Z,100283.65
2018-12-19T20:51:07.609Z,100279.84
2018-12-19T20:53:35.224Z,100283.65
2018-12-19T20:56:03.906Z,100281.09
2018-12-19T20:58:32.252Z,100286.17
2018-12-19T21:00:59.881Z,100283.20
2018-12-19T21:03:27.395Z,100279.84
2018-12-19T21:05:54.917Z,100271.78
2018-12-19T21:08:22.400Z,100273.50
2018-12-19T21:10:49.936Z,100273.92
2018-12-19T21:13:17.530Z,100272.21
2018-12-19T21:15:44.993Z,100272.64
2018-12-19T21:18:19.091Z,100273.92
2018-12-19T21:20:46.681Z,100275.19
2018-12-19T21:23:14.895Z,100271.83
2018-12-19T21:25:42.361Z,100270.56
2018-12-19T21:28:10.882Z,100267.14
2018-12-19T21:30:38.472Z,100271.81
2018-12-19T21:33:06.008Z,100277.72
2018-12-19T21:35:34.415Z,100282.80
2018-12-19T21:38:01.916Z,100270.91
2018-12-19T21:40:29.655Z,100277.27
2018-12-19T21:42:57.581Z,100276.02
2018-12-19T21:45:25.208Z,100275.16
2018-12-19T21:47:52.841Z,100276.84
2018-12-19T21:50:20.339Z,100271.78
2018-12-19T21:52:47.825Z,100270.95
2018-12-19T21:55:15.324Z,100264.20
2018-12-19T21:57:42.899Z,100274.34
2018-12-19T22:00:12.539Z,100277.30
2018-12-19T22:02:40.412Z,100275.64
2018-12-19T22:05:08.232Z,100281.11
2018-12-19T22:07:35.812Z,100293.82
2018-12-19T22:10:03.472Z,100293.85
2018-12-19T22:12:32.221Z,100297.27
2018-12-19T22:15:01.669Z,100293.47
2018-12-19T22:17:35.092Z,100290.53
2018-12-19T22:20:03.006Z,100290.55
2018-12-19T22:22:30.668Z,100287.16
2018-12-19T22:24:58.306Z,100279.16
2018-12-19T22:27:26.878Z,100285.48
2018-12-19T22:29:54.403Z,100287.63
2018-12-19T22:32:21.885Z,100282.09
2018-12-19T22:34:50.133Z,100274.47
2018-12-19T22:37:17.861Z,100277.02
2018-12-19T22:39:45.544Z,100282.94
2018-12-19T22:42:13.195Z,100268.58
2018-12-19T22:44:42.397Z,100281.23
2018-12-19T22:47:10.898Z,100278.74
2018-12-19T22:49:38.481Z,100275.75
2018-12-19T22:52:06.831Z,100271.97
2018-12-19T22:54:34.947Z,100272.79
2018-12-19T22:57:02.459Z,100274.92
2018-12-19T22:59:30.969Z,100275.34
2018-12-19T23:02:04.311Z,100278.72
2018-12-19T23:04:31.988Z,100281.67
2018-12-19T23:07:00.640Z,100273.20
2018-12-19T23:09:28.192Z,100274.05
2018-12-19T23:11:55.905Z,100268.52
2018-12-19T23:14:23.418Z,100270.23
2018-12-19T23:16:51.286Z,100269.78
2018-12-19T23:19:18.882Z,100268.93
2018-12-19T23:21:46.979Z,100259.22
2018-12-19T23:24:14.559Z,100265.14
2018-12-19T23:26:43.728Z,100257.53
2018-12-19T23:29:11.372Z,100262.20
2018-12-19T23:31:38.858Z,100264.73
2018-12-19T23:34:06.385Z,100260.91
2018-12-19T23:36:34.024Z,100264.73
2018-12-19T23:39:01.536Z,100256.30
2018-12-19T23:41:30.873Z,100251.64
2018-12-19T23:43:58.613Z,100256.28
2018-12-19T23:46:26.236Z,100249.09
2018-12-19T23:48:53.817Z,100246.15
2018-12-19T23:51:21.588Z,100248.24
2018-12-19T23:53:49.068Z,100252.06
2018-12-19T23:56:16.532Z,100257.57
2018-12-19T23:58:44.099Z,100258.40
